createdAt,value
2019-02-12T00:01:14.618Z,0.10
2019-02-12T00:03:55.582Z,0.10
2019-02-12T00:06:36.256Z,0.20
2019-02-12T00:09:17.174Z,0.20
2019-02-12T00:11:58.026Z,0.20
2019-02-12T00:14:38.338Z,0.20
2019-02-12T00:17:19.597Z,0.10
2019-02-12T00:20:00.669Z,0.10
2019-02-12T00:22:41.893Z,0.10
2019-02-12T00:25:22.682Z,0.20
2019-02-12T00:28:03.609Z,0.20
2019-02-12T00:30:42.418Z,0.20
2019-02-12T00:33:30.318Z,0.30
2019-02-12T00:36:18.115Z,0.30
2019-02-12T00:39:06.109Z,0.30
2019-02-12T00:41:53.963Z,0.40
2019-02-12T00:44:41.890Z,0.40
2019-02-12T00:47:29.735Z,0.40
2019-02-12T00:50:17.577Z,0.40
2019-02-12T00:53:05.364Z,0.50
2019-02-12T00:55:53.183Z,0.50
2019-02-12T00:58:41.009Z,0.50
2019-02-12T01:01:28.817Z,0.60
2019-02-12T01:04:09.860Z,0.70
2019-02-12T01:06:51.579Z,0.70
2019-02-12T01:09:32.060Z,0.70
2019-02-12T01:12:12.322Z,0.80
2019-02-12T01:14:52.712Z,0.80
2019-02-12T01:17:32.956Z,0.80
2019-02-12T01:20:13.406Z,0.90
2019-02-12T01:22:53.788Z,0.90
2019-02-12T01:25:32.762Z,0.90
2019-02-12T01:28:20.589Z,0.90
2019-02-12T01:31:08.409Z,1.00
2019-02-12T01:33:56.276Z,0.90
2019-02-12T01:36:44.160Z,1.00
2019-02-12T01:39:32.052Z,0.90
2019-02-12T01:42:19.870Z,0.90
2019-02-12T01:45:28.444Z,1.00
2019-02-12T01:48:16.329Z,0.90
2019-02-12T01:51:04.161Z,0.90
2019-02-12T01:53:51.991Z,0.90
2019-02-12T01:56:39.828Z,0.90
2019-02-12T01:59:27.620Z,1.00
2019-02-12T02:02:15.467Z,0.90
2019-02-12T02:04:55.947Z,0.90
2019-02-12T02:07:36.898Z,0.90
2019-02-12T02:10:17.088Z,0.90
2019-02-12T02:12:58.038Z,0.90
2019-02-12T02:15:38.514Z,0.80
2019-02-12T02:18:19.003Z,0.90
2019-02-12T02:20:59.401Z,0.80
2019-02-12T02:23:40.042Z,0.80
2019-02-12T02:26:18.911Z,0.80
2019-02-12T02:29:06.752Z,0.80
2019-02-12T02:32:06.054Z,0.80
2019-02-12T02:37:37.976Z,0.80
2019-02-12T02:40:25.785Z,0.80
2019-02-12T02:43:13.683Z,0.80
2019-02-12T02:46:01.504Z,0.80
2019-02-12T02:48:49.305Z,0.80
2019-02-12T02:51:37.146Z,0.80
2019-02-12T02:54:25.021Z,0.80
2019-02-12T02:57:12.937Z,0.80
2019-02-12T03:00:00.841Z,0.80
2019-02-12T03:02:48.720Z,0.80
2019-02-12T03:05:36.582Z,0.80
2019-02-12T03:08:24.422Z,0.80
2019-02-12T03:11:12.264Z,0.80
2019-02-12T03:14:00.146Z,0.80
2019-02-12T03:16:48.054Z,0.80
2019-02-12T03:19:29.014Z,0.80
2019-02-12T03:22:09.672Z,0.80
2019-02-12T03:24:50.502Z,0.80
2019-02-12T03:27:30.872Z,0.80
2019-02-12T03:30:12.369Z,0.80
2019-02-12T03:32:53.639Z,0.80
2019-02-12T03:35:32.432Z,0.80
2019-02-12T03:38:20.342Z,0.80
2019-02-12T03:41:08.219Z,0.80
2019-02-12T03:43:56.133Z,0.80
2019-02-12T03:46:43.933Z,0.80
2019-02-12T03:49:31.771Z,0.80
2019-02-12T03:55:28.171Z,0.80
2019-02-12T03:58:16.100Z,0.80
2019-02-12T04:01:04.043Z,0.80
2019-02-12T04:03:51.980Z,0.80
2019-02-12T04:06:39.895Z,0.80
2019-02-12T04:09:27.775Z,0.80
2019-02-12T04:12:15.622Z,0.80
2019-02-12T04:15:03.680Z,0.80
2019-02-12T04:17:51.564Z,0.80
2019-02-12T04:20:39.390Z,0.80
2019-02-12T04:23:27.238Z,0.70
2019-02-12T04:29:23.632Z,0.70
2019-02-12T04:32:11.426Z,0.70
2019-02-12T04:34:59.253Z,0.70
2019-02-12T04:37:47.164Z,0.70
2019-02-12T04:40:34.997Z,0.70
2019-02-12T04:43:22.808Z,0.80
2019-02-12T04:46:10.766Z,0.70
2019-02-12T04:48:58.591Z,0.70
2019-02-12T04:51:46.418Z,0.70
2019-02-12T04:54:34.295Z,0.70
2019-02-12T04:57:22.301Z,0.70
2019-02-12T05:00:29.454Z,0.70
2019-02-12T05:03:17.346Z,0.70
2019-02-12T05:05:57.843Z,0.60
2019-02-12T05:08:38.476Z,0.70
2019-02-12T05:11:19.603Z,0.60
2019-02-12T05:13:59.845Z,0.60
2019-02-12T05:16:40.964Z,0.60
2019-02-12T05:19:21.810Z,0.60
2019-02-12T05:22:03.402Z,0.60
2019-02-12T05:24:44.316Z,0.60
2019-02-12T05:27:25.065Z,0.60
2019-02-12T05:30:05.860Z,0.60
2019-02-12T05:32:47.020Z,0.60
2019-02-12T05:35:27.444Z,0.60
2019-02-12T05:38:08.533Z,0.60
2019-02-12T05:40:49.478Z,0.60
2019-02-12T05:43:29.883Z,0.60
2019-02-12T05:46:10.537Z,0.60
2019-02-12T05:48:51.636Z,0.60
2019-02-12T05:51:32.814Z,0.60
2019-02-12T05:54:13.767Z,0.60
2019-02-12T05:56:54.969Z,0.60
2019-02-12T05:59:36.068Z,0.60
2019-02-12T06:02:16.593Z,0.60
2019-02-12T06:04:55.456Z,0.60
2019-02-12T06:07:43.358Z,0.60
2019-02-12T06:10:31.199Z,0.60
2019-02-12T06:13:19.086Z,0.60
2019-02-12T06:16:06.989Z,0.60
2019-02-12T06:18:54.797Z,0.60
2019-02-12T06:21:42.619Z,0.60
2019-02-12T06:24:30.503Z,0.60
2019-02-12T06:27:11.192Z,0.60
2019-02-12T06:29:52.093Z,0.60
2019-02-12T06:32:32.699Z,0.60
2019-02-12T06:35:13.477Z,0.60
2019-02-12T06:37:54.396Z,0.70
2019-02-12T06:40:34.680Z,0.60
2019-02-12T06:43:14.952Z,0.60
2019-02-12T06:45:55.736Z,0.60
2019-02-12T06:48:36.744Z,0.70
2019-02-12T06:51:17.281Z,0.60
2019-02-12T06:53:57.660Z,0.60
2019-02-12T06:56:36.474Z,0.60
2019-02-12T06:59:24.310Z,0.70
2019-02-12T07:02:31.505Z,0.60
2019-02-12T07:05:19.377Z,0.60
2019-02-12T07:08:26.539Z,0.60
2019-02-12T07:11:33.661Z,0.60
2019-02-12T07:14:40.831Z,0.60
2019-02-12T07:17:47.958Z,0.60
2019-02-12T07:20:55.173Z,0.60
2019-02-12T07:24:03.788Z,0.50
2019-02-12T07:27:10.978Z,0.50
2019-02-12T07:30:18.100Z,0.50
2019-02-12T07:33:25.265Z,0.40
2019-02-12T07:36:32.508Z,0.40
2019-02-12T07:39:12.926Z,0.30
2019-02-12T07:41:53.546Z,0.30
2019-02-12T07:44:34.055Z,0.20
2019-02-12T07:47:14.892Z,0.20
2019-02-12T07:49:55.852Z,0.30
2019-02-12T07:52:36.651Z,0.30
2019-02-12T07:55:17.483Z,0.40
2019-02-12T07:57:57.957Z,0.40
2019-02-12T08:00:38.846Z,0.40
2019-02-12T08:03:20.062Z,0.50
2019-02-12T08:06:00.441Z,0.50
2019-02-12T08:08:40.987Z,0.50
2019-02-12T08:11:21.662Z,0.60
2019-02-12T08:14:02.021Z,0.60
2019-02-12T08:17:09.282Z,0.60
2019-02-12T08:20:16.410Z,0.60
2019-02-12T08:23:23.555Z,0.60
2019-02-12T08:26:32.189Z,0.70
2019-02-12T08:29:39.303Z,0.70
2019-02-12T08:32:47.858Z,0.70
2019-02-12T08:35:57.369Z,0.70
2019-02-12T08:39:05.312Z,0.70
2019-02-12T08:42:13.879Z,0.70
2019-02-12T08:45:22.470Z,0.70
2019-02-12T08:48:31.080Z,0.70
2019-02-12T08:51:38.503Z,0.80
2019-02-12T08:54:45.881Z,0.80
2019-02-12T08:57:53.028Z,0.80
2019-02-12T09:01:00.303Z,0.90
2019-02-12T09:04:07.493Z,0.90
2019-02-12T09:07:14.722Z,0.90
2019-02-12T09:09:55.234Z,1.00
2019-02-12T09:12:35.820Z,1.00
2019-02-12T09:15:16.881Z,1.00
2019-02-12T09:17:57.470Z,1.10
2019-02-12T09:20:38.454Z,1.20
2019-02-12T09:23:24.619Z,1.20
2019-02-12T09:26:31.765Z,1.30
2019-02-12T09:29:40.393Z,1.30
2019-02-12T09:32:47.557Z,1.30
2019-02-12T09:35:54.790Z,1.30
2019-02-12T09:39:02.011Z,1.40
2019-02-12T09:42:09.136Z,1.40
2019-02-12T09:45:17.764Z,1.40
2019-02-12T09:48:26.287Z,1.50
2019-02-12T09:51:34.833Z,1.50
2019-02-12T09:54:41.944Z,1.50
2019-02-12T09:57:49.080Z,1.50
2019-02-12T10:00:56.236Z,1.50
2019-02-12T10:04:03.410Z,1.40
2019-02-12T10:07:12.060Z,1.50
2019-02-12T10:09:53.207Z,1.50
2019-02-12T10:12:33.992Z,1.60
2019-02-12T10:15:14.398Z,1.60
2019-02-12T10:17:54.822Z,1.70
2019-02-12T10:20:44.055Z,1.90
2019-02-12T10:23:51.289Z,1.80
2019-02-12T10:26:59.884Z,1.90
2019-02-12T10:30:07.114Z,1.90
2019-02-12T10:32:34.511Z,1.90
2019-02-12T10:38:17.737Z,2.10
2019-02-12T10:40:58.881Z,2.10
2019-02-12T10:43:37.649Z,2.10
2019-02-12T10:46:26.064Z,2.00
2019-02-12T10:49:13.915Z,2.00
2019-02-12T10:52:01.738Z,2.00
2019-02-12T10:54:49.554Z,1.90
2019-02-12T10:57:37.403Z,1.90
2019-02-12T11:00:27.162Z,2.00
2019-02-12T11:03:14.986Z,2.00
2019-02-12T11:05:43.577Z,2.00
2019-02-12T11:08:12.073Z,2.10
2019-02-12T11:10:59.883Z,2.20
2019-02-12T11:13:47.716Z,2.20
2019-02-12T11:16:28.579Z,2.20
2019-02-12T11:19:08.880Z,2.20
2019-02-12T11:21:49.609Z,2.30
2019-02-12T11:24:35.465Z,2.20
2019-02-12T11:27:13.495Z,2.20
2019-02-12T11:29:54.721Z,2.20
2019-02-12T11:32:35.762Z,2.20
2019-02-12T11:35:16.415Z,2.20
2019-02-12T11:37:44.957Z,2.20
2019-02-12T11:40:13.597Z,2.20
2019-02-12T11:43:01.429Z,2.20
2019-02-12T11:45:49.227Z,2.20
2019-02-12T11:48:37.054Z,2.20
2019-02-12T11:51:05.528Z,2.20
2019-02-12T11:53:53.340Z,2.20
2019-02-12T11:56:41.237Z,2.20
2019-02-12T11:59:10.283Z,2.20
2019-02-12T12:01:58.190Z,2.10
2019-02-12T12:04:46.093Z,2.10
2019-02-12T12:07:33.886Z,2.10
2019-02-12T12:10:14.242Z,2.10
2019-02-12T12:12:55.481Z,2.10
2019-02-12T12:15:36.539Z,2.20
2019-02-12T12:18:17.554Z,2.20
2019-02-12T12:20:58.491Z,2.20
2019-02-12T12:23:27.024Z,2.20
2019-02-12T12:26:14.852Z,2.20
2019-02-12T12:29:02.669Z,2.10
2019-02-12T12:31:50.581Z,2.10
2019-02-12T12:34:38.417Z,2.00
2019-02-12T12:37:26.213Z,2.00
2019-02-12T12:40:14.203Z,2.00
2019-02-12T12:43:02.076Z,2.00
2019-02-12T12:45:49.915Z,2.00
2019-02-12T12:48:37.709Z,2.00
2019-02-12T12:51:25.538Z,2.10
2019-02-12T12:54:13.434Z,2.10
2019-02-12T12:57:01.269Z,2.10
2019-02-12T12:59:49.141Z,2.10
2019-02-12T13:02:17.685Z,2.20
2019-02-12T13:05:06.380Z,2.20
2019-02-12T13:07:54.217Z,2.20
2019-02-12T13:10:35.279Z,2.20
2019-02-12T13:13:16.987Z,2.10
2019-02-12T13:15:57.406Z,2.10
2019-02-12T13:18:38.118Z,2.10
2019-02-12T13:21:19.045Z,2.10
2019-02-12T13:23:59.651Z,2.10
2019-02-12T13:26:40.597Z,2.10
2019-02-12T13:29:09.090Z,2.10
2019-02-12T13:31:57.014Z,2.10
2019-02-12T13:34:44.912Z,2.20
2019-02-12T13:37:32.823Z,2.20
2019-02-12T13:40:20.635Z,2.20
2019-02-12T13:42:49.114Z,2.20
2019-02-12T13:45:36.951Z,2.20
2019-02-12T13:48:24.785Z,2.20
2019-02-12T13:50:53.713Z,2.20
2019-02-12T13:55:59.800Z,2.20
2019-02-12T13:58:40.944Z,2.10
2019-02-12T14:01:22.230Z,2.10
2019-02-12T14:03:51.585Z,2.20
2019-02-12T14:06:20.754Z,2.20
2019-02-12T14:09:08.979Z,2.20
2019-02-12T14:11:57.366Z,2.20
2019-02-12T14:14:37.875Z,2.30
2019-02-12T14:17:19.056Z,2.30
2019-02-12T14:19:48.182Z,2.30
2019-02-12T14:22:16.987Z,2.30
2019-02-12T14:24:45.857Z,2.30
2019-02-12T14:30:42.393Z,2.20
2019-02-12T14:33:30.282Z,2.20
2019-02-12T14:36:18.222Z,2.20
2019-02-12T14:39:06.173Z,2.30
2019-02-12T14:41:35.268Z,2.30
2019-02-12T14:44:04.815Z,2.30
2019-02-12T14:46:34.043Z,2.30
2019-02-12T14:49:03.119Z,2.30
2019-02-12T14:51:31.948Z,2.30
2019-02-12T14:54:01.002Z,2.30
2019-02-12T14:56:30.466Z,2.30
2019-02-12T14:59:30.175Z,2.30
2019-02-12T15:02:08.079Z,2.20
2019-02-12T15:05:00.555Z,2.20
2019-02-12T15:07:45.570Z,2.20
2019-02-12T15:10:26.196Z,2.20
2019-02-12T15:13:06.759Z,2.10
2019-02-12T15:15:47.561Z,2.10
2019-02-12T15:18:28.543Z,2.00
2019-02-12T15:20:57.179Z,1.90
2019-02-12T15:23:45.024Z,1.90
2019-02-12T15:26:32.874Z,2.00
2019-02-12T15:29:20.782Z,1.90
2019-02-12T15:32:08.733Z,1.90
2019-02-12T15:34:56.629Z,1.80
2019-02-12T15:37:44.511Z,1.80
2019-02-12T15:40:32.406Z,1.70
2019-02-12T15:43:22.040Z,1.60
2019-02-12T15:46:09.830Z,1.60
2019-02-12T15:48:57.671Z,1.50
2019-02-12T15:51:26.140Z,1.50
2019-02-12T15:54:13.984Z,1.40
2019-02-12T15:57:01.805Z,1.40
2019-02-12T15:59:49.697Z,1.30
2019-02-12T16:02:37.548Z,1.30
2019-02-12T16:05:25.717Z,1.20
2019-02-12T16:08:13.608Z,1.20
2019-02-12T16:10:55.171Z,1.20
2019-02-12T16:13:36.741Z,1.10
2019-02-12T16:16:17.629Z,1.10
2019-02-12T16:18:58.444Z,1.00
2019-02-12T16:21:39.067Z,1.00
2019-02-12T16:24:19.809Z,1.00
2019-02-12T16:27:00.664Z,1.00
2019-02-12T16:29:41.362Z,1.00
2019-02-12T16:32:22.409Z,0.90
2019-02-12T16:35:02.960Z,0.90
2019-02-12T16:37:43.959Z,1.00
2019-02-12T16:40:24.610Z,1.00
2019-02-12T16:43:05.308Z,1.00
2019-02-12T16:45:46.014Z,0.90
2019-02-12T16:48:27.128Z,0.80
2019-02-12T16:51:08.047Z,0.80
2019-02-12T16:53:48.822Z,0.80
2019-02-12T16:56:29.386Z,0.80
2019-02-12T16:59:08.234Z,0.80
2019-02-12T17:01:56.035Z,0.80
2019-02-12T17:04:44.241Z,0.80
2019-02-12T17:07:32.118Z,0.80
2019-02-12T17:10:14.292Z,0.80
2019-02-12T17:12:54.541Z,0.80
2019-02-12T17:15:33.375Z,0.80
2019-02-12T17:18:21.247Z,0.80
2019-02-12T17:21:09.146Z,0.80
2019-02-12T17:23:57.065Z,0.80
2019-02-12T17:26:44.900Z,0.80
2019-02-12T17:29:32.697Z,0.90
2019-02-12T17:32:20.536Z,0.90
2019-02-12T17:35:08.693Z,0.90
2019-02-12T17:37:56.516Z,0.90
2019-02-12T17:40:44.343Z,1.00
2019-02-12T17:43:32.178Z,1.00
2019-02-12T17:46:19.990Z,1.00
2019-02-12T17:49:07.846Z,1.00
2019-02-12T17:51:56.379Z,1.00
2019-02-12T17:54:45.273Z,1.00
2019-02-12T17:57:33.486Z,1.00
2019-02-12T18:03:17.431Z,1.10
2019-02-12T18:06:05.323Z,1.10
2019-02-12T18:08:53.217Z,1.10
2019-02-12T18:11:32.026Z,1.10
2019-02-12T18:14:19.848Z,1.10
2019-02-12T18:17:07.692Z,1.10
2019-02-12T18:19:55.511Z,1.10
2019-02-12T18:22:35.951Z,1.10
2019-02-12T18:25:16.754Z,1.00
2019-02-12T18:27:57.102Z,1.00
2019-02-12T18:30:37.831Z,1.00
2019-02-12T18:33:18.373Z,1.00
2019-02-12T18:35:59.573Z,1.00
2019-02-12T18:38:40.091Z,1.00
2019-02-12T18:41:20.459Z,1.00
2019-02-12T18:44:00.688Z,0.90
2019-02-12T18:46:42.259Z,1.00
2019-02-12T18:49:23.399Z,1.00
2019-02-12T18:51:51.866Z,1.40
2019-02-12T18:54:39.853Z,0.90
2019-02-12T18:57:27.687Z,0.90
2019-02-12T19:00:36.215Z,0.90
2019-02-12T19:03:24.112Z,0.90
2019-02-12T19:06:11.919Z,0.90
2019-02-12T19:08:59.906Z,0.90
2019-02-12T19:11:54.134Z,0.90
2019-02-12T19:14:30.944Z,0.90
2019-02-12T19:17:12.013Z,0.90
2019-02-12T19:19:53.124Z,0.90
2019-02-12T19:22:33.377Z,0.90
2019-02-12T19:25:12.258Z,0.90
2019-02-12T19:28:00.191Z,0.80
2019-02-12T19:30:48.079Z,0.90
2019-02-12T19:33:36.016Z,0.90
2019-02-12T19:36:23.821Z,0.90
2019-02-12T19:39:11.733Z,0.90
2019-02-12T19:41:59.546Z,0.90
2019-02-12T19:44:47.478Z,0.90
2019-02-12T19:47:35.419Z,0.90
2019-02-12T19:50:23.499Z,0.90
2019-02-12T19:53:11.397Z,0.90
2019-02-12T19:55:59.572Z,0.90
2019-02-12T19:58:47.410Z,1.00
2019-02-12T20:01:35.300Z,1.00
2019-02-12T20:04:23.193Z,1.00
2019-02-12T20:07:11.119Z,1.00
2019-02-12T20:09:59.110Z,1.00
2019-02-12T20:12:46.932Z,1.00
2019-02-12T20:15:34.864Z,1.10
2019-02-12T20:18:23.053Z,1.00
2019-02-12T20:21:10.957Z,1.10
2019-02-12T20:23:51.961Z,1.10
2019-02-12T20:26:33.267Z,1.10
2019-02-12T20:29:13.644Z,1.10
2019-02-12T20:31:52.411Z,1.10
2019-02-12T20:34:40.222Z,1.10
2019-02-12T20:40:26.499Z,1.10
2019-02-12T20:43:14.374Z,1.10
2019-02-12T20:46:02.285Z,1.10
2019-02-12T20:48:50.181Z,1.10
2019-02-12T20:51:38.353Z,1.10
2019-02-12T20:54:26.229Z,1.10
2019-02-12T20:57:15.350Z,1.00
2019-02-12T21:00:24.330Z,1.00
2019-02-12T21:03:12.271Z,1.10
2019-02-12T21:06:00.139Z,1.00
2019-02-12T21:08:48.063Z,1.00
2019-02-12T21:11:29.216Z,1.00
2019-02-12T21:14:10.278Z,1.00
2019-02-12T21:16:51.308Z,1.00
2019-02-12T21:19:32.541Z,1.00
2019-02-12T21:22:13.326Z,1.00
2019-02-12T21:24:54.482Z,1.00
2019-02-12T21:27:35.434Z,1.00
2019-02-12T21:30:16.262Z,1.00
2019-02-12T21:32:55.003Z,1.00
2019-02-12T21:35:42.921Z,0.90
2019-02-12T21:38:30.807Z,0.90
2019-02-12T21:41:18.637Z,0.90
2019-02-12T21:44:06.456Z,0.90
2019-02-12T21:46:54.288Z,0.80
2019-02-12T21:49:42.121Z,0.80
2019-02-12T21:52:29.927Z,0.80
2019-02-12T21:55:18.503Z,0.80
2019-02-12T21:58:06.335Z,0.80
2019-02-12T22:00:54.162Z,0.70
2019-02-12T22:03:41.961Z,0.70
2019-02-12T22:06:29.808Z,0.70
2019-02-12T22:09:17.686Z,0.60
2019-02-12T22:12:05.532Z,0.60
2019-02-12T22:14:53.373Z,0.60
2019-02-12T22:17:41.534Z,0.50
2019-02-12T22:20:29.445Z,0.40
2019-02-12T22:23:08.207Z,0.40
2019-02-12T22:25:49.406Z,0.40
2019-02-12T22:28:29.920Z,0.40
2019-02-12T22:31:10.785Z,0.50
2019-02-12T22:33:51.799Z,0.40
2019-02-12T22:36:32.515Z,0.40
2019-02-12T22:39:12.927Z,0.40
2019-02-12T22:41:53.819Z,0.40
2019-02-12T22:44:34.950Z,0.40
2019-02-12T22:47:15.432Z,0.40
2019-02-12T22:49:54.235Z,0.40
2019-02-12T22:52:42.063Z,0.40
2019-02-12T22:55:29.880Z,0.40
2019-02-12T22:58:17.789Z,0.40
2019-02-12T23:01:26.312Z,0.40
2019-02-12T23:04:14.148Z,0.40
2019-02-12T23:07:02.100Z,0.40
2019-02-12T23:09:49.951Z,0.40
2019-02-12T23:12:37.836Z,0.40
2019-02-12T23:15:25.724Z,0.40
2019-02-12T23:18:06.599Z,0.40
2019-02-12T23:20:46.998Z,0.30
2019-02-12T23:23:27.981Z,0.30
2019-02-12T23:26:08.383Z,0.30
2019-02-12T23:28:49.376Z,0.30
2019-02-12T23:31:30.378Z,0.30
2019-02-12T23:34:11.081Z,0.30
2019-02-12T23:36:51.945Z,0.30
2019-02-12T23:39:30.791Z,0.30
2019-02-12T23:42:18.657Z,0.30
2019-02-12T23:45:27.243Z,0.30
2019-02-12T23:48:15.047Z,0.20
2019-02-12T23:51:02.940Z,0.20
2019-02-12T23:53:51.006Z,0.10
2019-02-12T23:56:38.837Z,0.10
2019-02-12T23:59:26.629Z,0.10
